Time;durP1;ratioP1;P1;durP2;ratioP2;P2;SDS_P1;SDS_P2;PMS_P1;PMS_P2;Temp;Humidity;BMP_temperature;BMP_pressure;BME280_temperature;BME280_humidity;BME280_pressure;Samples;Min_cycle;Max_cycle;Signal;HPM_P1;HPM_P2
2023/04/26 00:00:10;;;;;;;;;;;;;;;;;;5043207;28;20387;-63
2023/04/26 00:02:37;;;;;;;;;;;;;;;;;;5055918;28;19952;-63
2023/04/26 00:05:04;;;;;;;;;;;;;;;;;;5041777;28;19975;-63
2023/04/26 00:07:31;;;;;;;;;;;;;;;;;;5046000;28;19925;-63
2023/04/26 00:09:58;;;;;;;;;;;;;;;;;;5041971;28;19925;-63
2023/04/26 00:12:25;;;;;;;;;;;;;;;;;;5043957;28;19925;-63
2023/04/26 00:14:51;;;;;;;;;;;;;;;;;;5042908;28;20374;-63
2023/04/26 00:17:18;;;;;;;;;;;;;;;;;;5042022;28;20437;-63
2023/04/26 00:19:45;;;;;;;;;;;;;;;;;;5040354;28;19925;-64
2023/04/26 00:22:12;;;;;;;;;;;;;;;;;;5039824;28;19925;-63
2023/04/26 00:24:40;;;;;;;;;;;;;;;;;;5043037;28;19931;-63
2023/04/26 00:27:09;;;;;;;;;;;;;;;;;;5042902;28;19929;-63
2023/04/26 00:29:36;;;;;;;;;;;;;;;;;;5042465;28;19925;-63
2023/04/26 00:32:02;;;;;;;;;;;;;;;;;;5047495;28;19929;-63
2023/04/26 00:34:29;;;;;;;;;;;;;;;;;;5042869;28;20368;-63
2023/04/26 00:36:56;;;;;;;;;;;;;;;;;;5043117;28;19924;-63
2023/04/26 00:39:23;;;;;;;;;;;;;;;;;;5038352;28;19933;-63
2023/04/26 00:41:50;;;;;;;;;;;;;;;;;;5044007;28;19987;-64
2023/04/26 00:44:17;;;;;;;;;;;;;;;;;;5040541;28;19924;-61
2023/04/26 00:46:43;;;;;;;;;;;;;;;;;;5043532;28;20342;-63
2023/04/26 00:49:11;;;;;;;;;;;;;;;;;;5046857;28;20442;-63
2023/04/26 00:51:38;;;;;;;;;;;;;;;;;;5047421;28;19926;-63
2023/04/26 00:54:05;;;;;;;;;;;;;;;;;;5043750;28;19925;-64
2023/04/26 00:56:32;;;;;;;;;;;;;;;;;;5042470;28;20366;-63
2023/04/26 00:58:59;;;;;;;;;;;;;;;;;;5044604;28;19929;-63
2023/04/26 01:01:26;;;;;;;;;;;;;;;;;;5047349;28;19925;-62
2023/04/26 01:03:52;;;;;;;;;;;;;;;;;;5050973;28;19956;-63
2023/04/26 01:06:19;;;;;;;;;;;;;;;;;;5044765;28;19925;-63
2023/04/26 01:08:46;;;;;;;;;;;;;;;;;;5034965;28;19929;-63
2023/04/26 01:11:13;;;;;;;;;;;;;;;;;;5040439;28;19986;-63
2023/04/26 01:13:40;;;;;;;;;;;;;;;;;;5045748;28;20387;-62
2023/04/26 01:16:07;;;;;;;;;;;;;;;;;;5044038;28;19925;-63
2023/04/26 01:18:33;;;;;;;;;;;;;;;;;;5043491;28;19951;-63
2023/04/26 01:21:00;;;;;;;;;;;;;;;;;;5038843;28;19972;-63
2023/04/26 01:23:27;;;;;;;;;;;;;;;;;;5042129;28;19925;-62
2023/04/26 01:25:55;;;;;;;;;;;;;;;;;;5047696;28;19970;-64
2023/04/26 01:28:22;;;;;;;;;;;;;;;;;;5044276;28;19931;-63
2023/04/26 01:30:48;;;;;;;;;;;;;;;;;;5044434;28;20304;-63
2023/04/26 01:33:15;;;;;;;;;;;;;;;;;;5055682;28;20602;-63
2023/04/26 01:35:42;;;;;;;;;;;;;;;;;;5045006;28;20019;-63
2023/04/26 01:38:09;;;;;;;;;;;;;;;;;;5039357;28;19926;-62
2023/04/26 01:40:36;;;;;;;;;;;;;;;;;;5044211;28;19932;-62
2023/04/26 01:43:03;;;;;;;;;;;;;;;;;;5041809;28;19979;-62
2023/04/26 01:45:30;;;;;;;;;;;;;;;;;;5043273;28;19944;-63
2023/04/26 01:47:57;;;;;;;;;;;;;;;;;;5048038;28;19924;-63
2023/04/26 01:50:24;;;;;;;;;;;;;;;;;;5042854;28;19925;-62
2023/04/26 01:52:51;;;;;;;;;;;;;;;;;;5046691;28;19925;-61
2023/04/26 01:55:18;;;;;;;;;;;;;;;;;;5044359;28;19925;-63
2023/04/26 01:57:45;;;;;;;;;;;;;;;;;;5043752;28;19925;-63
2023/04/26 02:00:12;;;;;;;;;;;;;;;;;;5044381;28;19933;-63
2023/04/26 02:02:39;;;;;;;;;;;;;;;;;;5058742;28;19977;-63
2023/04/26 02:05:06;;;;;;;;;;;;;;;;;;5043966;28;19925;-63
2023/04/26 02:07:33;;;;;;;;;;;;;;;;;;5045134;28;19979;-62
2023/04/26 02:10:00;;;;;;;;;;;;;;;;;;5044403;28;19978;-63
2023/04/26 02:12:27;;;;;;;;;;;;;;;;;;5045677;28;19933;-62
2023/04/26 02:14:53;;;;;;;;;;;;;;;;;;5042520;28;19995;-62
2023/04/26 02:17:21;;;;;;;;;;;;;;;;;;5043204;28;20057;-62
2023/04/26 02:19:48;;;;;;;;;;;;;;;;;;5044863;28;19974;-64
2023/04/26 02:22:15;;;;;;;;;;;;;;;;;;5040504;28;19925;-63
2023/04/26 02:24:42;;;;;;;;;;;;;;;;;;5044702;28;19924;-63
2023/04/26 02:27:09;;;;;;;;;;;;;;;;;;5042746;28;19933;-62
2023/04/26 02:29:36;;;;;;;;;;;;;;;;;;5046218;28;19971;-62
2023/04/26 02:32:03;;;;;;;;;;;;;;;;;;5052947;28;20468;-63
2023/04/26 02:34:29;;;;;;;;;;;;;;;;;;5045039;28;19967;-63
2023/04/26 02:36:56;;;;;;;;;;;;;;;;;;5042085;28;19979;-63
2023/04/26 02:39:23;;;;;;;;;;;;;;;;;;5038708;28;19932;-63
2023/04/26 02:41:50;;;;;;;;;;;;;;;;;;5047273;28;19990;-62
2023/04/26 02:44:17;;;;;;;;;;;;;;;;;;5041865;28;20307;-63
2023/04/26 02:46:44;;;;;;;;;;;;;;;;;;5043353;28;20338;-62
2023/04/26 02:49:11;;;;;;;;;;;;;;;;;;5043888;28;20011;-63
2023/04/26 02:51:38;;;;;;;;;;;;;;;;;;5041176;28;19971;-62
2023/04/26 02:54:05;;;;;;;;;;;;;;;;;;5042694;28;19929;-63
2023/04/26 02:56:31;;;;;;;;;;;;;;;;;;5040736;28;19925;-63
2023/04/26 02:58:58;;;;;;;;;;;;;;;;;;5041811;28;19971;-63
2023/04/26 03:01:25;;;;;;;;;;;;;;;;;;5044660;28;19924;-62
2023/04/26 03:03:52;;;;;;;;;;;;;;;;;;5040825;28;19925;-63
2023/04/26 03:06:19;;;;;;;;;;;;;;;;;;5043619;28;19929;-63
2023/04/26 03:08:46;;;;;;;;;;;;;;;;;;5043841;28;19979;-63
2023/04/26 03:11:12;;;;;;;;;;;;;;;;;;5046357;28;19979;-63
2023/04/26 03:13:40;;;;;;;;;;;;;;;;;;5043728;28;19925;-63
2023/04/26 03:16:07;;;;;;;;;;;;;;;;;;5032084;28;19932;-63
2023/04/26 03:18:33;;;;;;;;;;;;;;;;;;5032842;28;19925;-62
2023/04/26 03:21:00;;;;;;;;;;;;;;;;;;5038482;28;19925;-64
2023/04/26 03:23:28;;;;;;;;;;;;;;;;;;5042262;28;19926;-63
2023/04/26 03:25:54;;;;;;;;;;;;;;;;;;5044617;28;19928;-63
2023/04/26 03:28:21;;;;;;;;;;;;;;;;;;5041521;28;19925;-63
2023/04/26 03:30:49;;;;;;;;;;;;;;;;;;5044360;28;19951;-63
2023/04/26 03:33:16;;;;;;;;;;;;;;;;;;5047570;28;20361;-63
2023/04/26 03:35:43;;;;;;;;;;;;;;;;;;5043637;28;19979;-63
2023/04/26 03:38:10;;;;;;;;;;;;;;;;;;5036943;28;19951;-63
2023/04/26 03:40:36;;;;;;;;;;;;;;;;;;5044691;28;19925;-64
2023/04/26 03:43:03;;;;;;;;;;;;;;;;;;5041752;28;19925;-63
2023/04/26 03:45:30;;;;;;;;;;;;;;;;;;5043419;28;19924;-62
2023/04/26 03:47:57;;;;;;;;;;;;;;;;;;5042089;28;19925;-63
2023/04/26 03:50:24;;;;;;;;;;;;;;;;;;5041500;28;19925;-63
2023/04/26 03:52:51;;;;;;;;;;;;;;;;;;5043163;28;19929;-63
2023/04/26 03:55:17;;;;;;;;;;;;;;;;;;5042672;28;19924;-63
2023/04/26 03:57:44;;;;;;;;;;;;;;;;;;5040094;28;19929;-63
2023/04/26 04:00:12;;;;;;;;;;;;;;;;;;5040979;28;19929;-63
2023/04/26 04:02:39;;;;;;;;;;;;;;;;;;5052147;28;19932;-64
2023/04/26 04:05:06;;;;;;;;;;;;;;;;;;5044076;28;19925;-63
2023/04/26 04:07:33;;;;;;;;;;;;;;;;;;5040674;28;19925;-63
2023/04/26 04:10:00;;;;;;;;;;;;;;;;;;5040440;28;19929;-63
2023/04/26 04:12:27;;;;;;;;;;;;;;;;;;5040932;28;20027;-63
2023/04/26 04:14:54;;;;;;;;;;;;;;;;;;5043227;28;20349;-62
2023/04/26 04:17:21;;;;;;;;;;;;;;;;;;5040870;28;20346;-62
2023/04/26 04:19:48;;;;;;;;;;;;;;;;;;5040945;28;20453;-63
2023/04/26 04:22:15;;;;;;;;;;;;;;;;;;5049347;28;19925;-61
2023/04/26 04:24:43;;;;;;;;;;;;;;;;;;5046160;28;19925;-61
2023/04/26 04:27:10;;;;;;;;;;;;;;;;;;5045947;28;19928;-61
2023/04/26 04:29:37;;;;;;;;;;;;;;;;;;5043777;28;19968;-61
2023/04/26 04:32:04;;;;;;;;;;;;;;;;;;5057842;28;20376;-61
2023/04/26 04:34:30;;;;;;;;;;;;;;;;;;5046519;28;19925;-61
2023/04/26 04:36:57;;;;;;;;;;;;;;;;;;5045152;28;19970;-61
2023/04/26 04:39:24;;;;;;;;;;;;;;;;;;5044175;28;19925;-61
2023/04/26 04:41:53;;;;;;;;;;;;;;;;;;5047067;28;19925;-61
2023/04/26 04:44:20;;;;;;;;;;;;;;;;;;5046567;28;19925;-60
2023/04/26 04:46:47;;;;;;;;;;;;;;;;;;5044283;28;19929;-61
2023/04/26 04:49:14;;;;;;;;;;;;;;;;;;5046619;28;20281;-62
2023/04/26 04:51:41;;;;;;;;;;;;;;;;;;5043417;28;20430;-61
2023/04/26 04:54:08;;;;;;;;;;;;;;;;;;5044774;28;20387;-61
2023/04/26 04:56:35;;;;;;;;;;;;;;;;;;5046862;28;20330;-62
2023/04/26 04:59:03;;;;;;;;;;;;;;;;;;5044146;28;20450;-61
2023/04/26 05:01:29;;;;;;;;;;;;;;;;;;5051841;28;20376;-61
2023/04/26 05:03:56;;;;;;;;;;;;;;;;;;5044505;28;20446;-61
2023/04/26 05:06:24;;;;;;;;;;;;;;;;;;5046597;28;19951;-61
2023/04/26 05:08:51;;;;;;;;;;;;;;;;;;5046831;28;19929;-62
2023/04/26 05:11:17;;;;;;;;;;;;;;;;;;5046013;28;19925;-61
2023/04/26 05:13:44;;;;;;;;;;;;;;;;;;5046313;28;19974;-62
2023/04/26 05:16:11;;;;;;;;;;;;;;;;;;5034488;28;19925;-61
2023/04/26 05:18:38;;;;;;;;;;;;;;;;;;5035042;28;19925;-61
2023/04/26 05:21:05;;;;;;;;;;;;;;;;;;5040622;28;19980;-61
2023/04/26 05:23:33;;;;;;;;;;;;;;;;;;5044495;28;19925;-61
2023/04/26 05:26:00;;;;;;;;;;;;;;;;;;5046243;28;19939;-61
2023/04/26 05:28:26;;;;;;;;;;;;;;;;;;5046311;28;20084;-61
2023/04/26 05:30:54;;;;;;;;;;;;;;;;;;5048937;28;19925;-61
2023/04/26 05:33:21;;;;;;;;;;;;;;;;;;5045518;28;19925;-62
2023/04/26 05:35:48;;;;;;;;;;;;;;;;;;5044773;28;19929;-61
2023/04/26 05:38:15;;;;;;;;;;;;;;;;;;5045369;28;19925;-61
2023/04/26 05:40:42;;;;;;;;;;;;;;;;;;5043637;28;19932;-62
2023/04/26 05:43:09;;;;;;;;;;;;;;;;;;5043843;28;19925;-61
2023/04/26 05:45:36;;;;;;;;;;;;;;;;;;5045774;28;19924;-61
2023/04/26 05:48:03;;;;;;;;;;;;;;;;;;5043908;28;19925;-61
2023/04/26 05:50:30;;;;;;;;;;;;;;;;;;5043023;28;19955;-61
2023/04/26 05:52:56;;;;;;;;;;;;;;;;;;5045094;28;19928;-61
2023/04/26 05:55:23;;;;;;;;;;;;;;;;;;5045020;28;19924;-59
2023/04/26 05:57:50;;;;;;;;;;;;;;;;;;5043137;28;19979;-61
2023/04/26 06:00:19;;;;;;;;;;;;;;;;;;5044398;28;19935;-61
2023/04/26 06:02:46;;;;;;;;;;;;;;;;;;5051905;28;19925;-61
2023/04/26 06:05:13;;;;;;;;;;;;;;;;;;5044110;28;19974;-61
2023/04/26 06:07:40;;;;;;;;;;;;;;;;;;5041926;28;19925;-61
2023/04/26 06:10:07;;;;;;;;;;;;;;;;;;5033874;28;19929;-59
2023/04/26 06:12:34;;;;;;;;;;;;;;;;;;5033568;28;19925;-61
2023/04/26 06:15:01;;;;;;;;;;;;;;;;;;5033978;28;19929;-61
2023/04/26 06:17:27;;;;;;;;;;;;;;;;;;5033551;28;19925;-62
2023/04/26 06:19:55;;;;;;;;;;;;;;;;;;5033798;28;20375;-63
2023/04/26 06:22:21;;;;;;;;;;;;;;;;;;5044447;28;19931;-62
2023/04/26 06:24:48;;;;;;;;;;;;;;;;;;5044186;28;19925;-62
2023/04/26 06:27:15;;;;;;;;;;;;;;;;;;5041933;28;20395;-62
2023/04/26 06:29:44;;;;;;;;;;;;;;;;;;5043778;28;19925;-62
2023/04/26 06:32:11;;;;;;;;;;;;;;;;;;5048134;28;19924;-62
2023/04/26 06:34:37;;;;;;;;;;;;;;;;;;5047158;28;19929;-62
2023/04/26 06:37:04;;;;;;;;;;;;;;;;;;5042243;28;19925;-61
2023/04/26 06:39:31;;;;;;;;;;;;;;;;;;5044378;28;20031;-62
2023/04/26 06:41:58;;;;;;;;;;;;;;;;;;5043320;28;20315;-62
2023/04/26 06:44:25;;;;;;;;;;;;;;;;;;5041513;28;20354;-63
2023/04/26 06:46:52;;;;;;;;;;;;;;;;;;5043405;28;19947;-63
2023/04/26 06:49:19;;;;;;;;;;;;;;;;;;5043758;28;19982;-63
2023/04/26 06:51:45;;;;;;;;;;;;;;;;;;5041644;28;19975;-63
2023/04/26 06:54:12;;;;;;;;;;;;;;;;;;5043014;28;19925;-62
2023/04/26 06:56:39;;;;;;;;;;;;;;;;;;5043958;28;20294;-63
2023/04/26 06:59:06;;;;;;;;;;;;;;;;;;5042054;28;19925;-60
2023/04/26 07:01:34;;;;;;;;;;;;;;;;;;5051387;28;19971;-62
2023/04/26 07:04:01;;;;;;;;;;;;;;;;;;5047306;28;19979;-63
2023/04/26 07:06:28;;;;;;;;;;;;;;;;;;5043053;28;19933;-62
2023/04/26 07:08:55;;;;;;;;;;;;;;;;;;5040327;28;19937;-62
2023/04/26 07:11:22;;;;;;;;;;;;;;;;;;5048587;28;19975;-62
2023/04/26 07:13:49;;;;;;;;;;;;;;;;;;5046373;28;19931;-59
2023/04/26 07:16:16;;;;;;;;;;;;;;;;;;5043435;28;20303;-60
2023/04/26 07:18:43;;;;;;;;;;;;;;;;;;5043193;28;20383;-61
2023/04/26 07:21:10;;;;;;;;;;;;;;;;;;5044226;28;20445;-62
2023/04/26 07:23:37;;;;;;;;;;;;;;;;;;5042133;28;19925;-61
2023/04/26 07:26:04;;;;;;;;;;;;;;;;;;5041187;28;19971;-61
2023/04/26 07:28:31;;;;;;;;;;;;;;;;;;5032555;28;20342;-61
2023/04/26 07:30:58;;;;;;;;;;;;;;;;;;5042435;28;20022;-61
2023/04/26 07:33:25;;;;;;;;;;;;;;;;;;5045798;28;19983;-62
2023/04/26 07:35:52;;;;;;;;;;;;;;;;;;5044229;28;19924;-60
2023/04/26 07:38:18;;;;;;;;;;;;;;;;;;5044951;28;19929;-62
2023/04/26 07:40:45;;;;;;;;;;;;;;;;;;5043742;28;19975;-59
2023/04/26 07:43:14;;;;;;;;;;;;;;;;;;5042144;28;19925;-61
2023/04/26 07:45:41;;;;;;;;;;;;;;;;;;5043454;28;20015;-61
2023/04/26 07:48:07;;;;;;;;;;;;;;;;;;5041619;28;20087;-61
2023/04/26 07:50:35;;;;;;;;;;;;;;;;;;5040830;28;19925;-61
2023/04/26 07:53:01;;;;;;;;;;;;;;;;;;5041161;28;20342;-61
2023/04/26 07:55:28;;;;;;;;;;;;;;;;;;5042132;28;19936;-61
2023/04/26 07:57:55;;;;;;;;;;;;;;;;;;5047257;28;19925;-62
2023/04/26 08:00:22;;;;;;;;;;;;;;;;;;5047889;28;19929;-62
2023/04/26 08:02:49;;;;;;;;;;;;;;;;;;5050884;28;19925;-61
2023/04/26 08:05:16;;;;;;;;;;;;;;;;;;5045562;28;20017;-61
2023/04/26 08:07:43;;;;;;;;;;;;;;;;;;5045153;28;19925;-62
2023/04/26 08:10:10;;;;;;;;;;;;;;;;;;5047503;28;19929;-60
2023/04/26 08:12:37;;;;;;;;;;;;;;;;;;5046289;28;19925;-62
2023/04/26 08:15:04;;;;;;;;;;;;;;;;;;5044540;28;19975;-63
2023/04/26 08:17:31;;;;;;;;;;;;;;;;;;5046683;28;19925;-62
2023/04/26 08:19:58;;;;;;;;;;;;;;;;;;5047087;28;19932;-62
2023/04/26 08:22:24;;;;;;;;;;;;;;;;;;5044941;28;19925;-61
2023/04/26 08:24:51;;;;;;;;;;;;;;;;;;5046325;28;19978;-61
2023/04/26 08:27:18;;;;;;;;;;;;;;;;;;5047014;28;19929;-61
2023/04/26 08:29:45;;;;;;;;;;;;;;;;;;5045509;28;19929;-62
2023/04/26 08:32:12;;;;;;;;;;;;;;;;;;5054102;28;19925;-61
2023/04/26 08:34:39;;;;;;;;;;;;;;;;;;5050897;28;19952;-62
2023/04/26 08:37:06;;;;;;;;;;;;;;;;;;5045435;28;19940;-62
2023/04/26 08:39:33;;;;;;;;;;;;;;;;;;5047440;28;19925;-62
2023/04/26 08:42:01;;;;;;;;;;;;;;;;;;5047275;28;20371;-62
2023/04/26 08:44:28;;;;;;;;;;;;;;;;;;5047934;28;20015;-62
2023/04/26 08:46:54;;;;;;;;;;;;;;;;;;5035831;28;20031;-62
2023/04/26 08:49:21;;;;;;;;;;;;;;;;;;5036485;28;19925;-62
2023/04/26 08:51:48;;;;;;;;;;;;;;;;;;5035218;28;19929;-62
2023/04/26 08:54:16;;;;;;;;;;;;;;;;;;5037283;28;19948;-62
2023/04/26 08:56:43;;;;;;;;;;;;;;;;;;5034986;28;19965;-62
2023/04/26 08:59:10;;;;;;;;;;;;;;;;;;5044300;28;19925;-62
2023/04/26 09:01:37;;;;;;;;;;;;;;;;;;5046442;28;19925;-61
2023/04/26 09:04:04;;;;;;;;;;;;;;;;;;5051480;28;20391;-62
2023/04/26 09:06:30;;;;;;;;;;;;;;;;;;5044160;28;20379;-62
2023/04/26 09:08:57;;;;;;;;;;;;;;;;;;5043720;28;19925;-62
2023/04/26 09:11:24;;;;;;;;;;;;;;;;;;5045963;28;19971;-62
2023/04/26 09:13:51;;;;;;;;;;;;;;;;;;5045476;28;20027;-62
2023/04/26 09:16:18;;;;;;;;;;;;;;;;;;5043277;28;19929;-62
2023/04/26 09:18:45;;;;;;;;;;;;;;;;;;5044854;28;20294;-62
2023/04/26 09:21:15;;;;;;;;;;;;;;;;;;5045933;28;20264;-62
2023/04/26 09:23:42;;;;;;;;;;;;;;;;;;5044281;28;19925;-62
2023/04/26 09:26:08;;;;;;;;;;;;;;;;;;5043421;28;19979;-62
2023/04/26 09:28:36;;;;;;;;;;;;;;;;;;5034801;28;19925;-62
2023/04/26 09:31:03;;;;;;;;;;;;;;;;;;5046670;28;19925;-62
2023/04/26 09:33:30;;;;;;;;;;;;;;;;;;5050393;28;20334;-62
2023/04/26 09:35:56;;;;;;;;;;;;;;;;;;5044578;28;19929;-62
2023/04/26 09:38:23;;;;;;;;;;;;;;;;;;5045667;28;19978;-62
2023/04/26 09:40:50;;;;;;;;;;;;;;;;;;5043554;28;19978;-61
2023/04/26 09:43:17;;;;;;;;;;;;;;;;;;5043895;28;19952;-62
2023/04/26 09:45:44;;;;;;;;;;;;;;;;;;5045536;28;19959;-61
2023/04/26 09:48:11;;;;;;;;;;;;;;;;;;5043498;28;19925;-62
2023/04/26 09:50:38;;;;;;;;;;;;;;;;;;5043897;28;20181;-61
2023/04/26 09:53:05;;;;;;;;;;;;;;;;;;5044208;28;19928;-62
2023/04/26 09:55:32;;;;;;;;;;;;;;;;;;5045102;28;19925;-62
2023/04/26 09:57:59;;;;;;;;;;;;;;;;;;5048420;28;19929;-62
2023/04/26 10:00:26;;;;;;;;;;;;;;;;;;5045350;28;19928;-62
2023/04/26 10:02:53;;;;;;;;;;;;;;;;;;5051729;28;19924;-62
2023/04/26 10:05:19;;;;;;;;;;;;;;;;;;5042163;28;19925;-62
2023/04/26 10:07:46;;;;;;;;;;;;;;;;;;5044597;28;19925;-62
2023/04/26 10:10:13;;;;;;;;;;;;;;;;;;5040923;28;20003;-62
2023/04/26 10:12:40;;;;;;;;;;;;;;;;;;5043779;28;19933;-62
2023/04/26 10:15:07;;;;;;;;;;;;;;;;;;5045980;28;20287;-62
2023/04/26 10:17:35;;;;;;;;;;;;;;;;;;5042251;28;20342;-63
2023/04/26 10:20:03;;;;;;;;;;;;;;;;;;5042467;28;19940;-62
2023/04/26 10:22:31;;;;;;;;;;;;;;;;;;5047324;28;19925;-62
2023/04/26 10:24:57;;;;;;;;;;;;;;;;;;5043888;28;20353;-62
2023/04/26 10:27:24;;;;;;;;;;;;;;;;;;5042048;28;19925;-62
2023/04/26 10:29:51;;;;;;;;;;;;;;;;;;5043505;28;19925;-62
2023/04/26 10:32:18;;;;;;;;;;;;;;;;;;5046475;28;19929;-62
2023/04/26 10:34:46;;;;;;;;;;;;;;;;;;5045435;28;19929;-62
2023/04/26 10:37:12;;;;;;;;;;;;;;;;;;5042737;28;19925;-62
2023/04/26 10:39:39;;;;;;;;;;;;;;;;;;5044570;28;19925;-62
2023/04/26 10:42:06;;;;;;;;;;;;;;;;;;5042728;28;20440;-62
2023/04/26 10:44:33;;;;;;;;;;;;;;;;;;5042158;28;19979;-62
2023/04/26 10:47:00;;;;;;;;;;;;;;;;;;5041548;28;19933;-62
2023/04/26 10:49:27;;;;;;;;;;;;;;;;;;5042543;28;19972;-63
2023/04/26 10:51:54;;;;;;;;;;;;;;;;;;5044390;28;20338;-62
2023/04/26 10:54:21;;;;;;;;;;;;;;;;;;5042837;28;19929;-62
2023/04/26 10:56:48;;;;;;;;;;;;;;;;;;5041479;28;19925;-62
2023/04/26 10:59:15;;;;;;;;;;;;;;;;;;5043615;28;20346;-62
2023/04/26 11:01:41;;;;;;;;;;;;;;;;;;5047334;28;20387;-63
2023/04/26 11:04:08;;;;;;;;;;;;;;;;;;5050694;28;20380;-62
2023/04/26 11:06:37;;;;;;;;;;;;;;;;;;5042006;28;21280;-62
2023/04/26 11:09:04;;;;;;;;;;;;;;;;;;5041580;28;20015;-62
2023/04/26 11:11:31;;;;;;;;;;;;;;;;;;5043397;28;19925;-62
2023/04/26 11:13:58;;;;;;;;;;;;;;;;;;5043849;28;19929;-62
2023/04/26 11:16:25;;;;;;;;;;;;;;;;;;5041077;28;19987;-63
2023/04/26 11:18:52;;;;;;;;;;;;;;;;;;5042462;28;20015;-63
2023/04/26 11:21:19;;;;;;;;;;;;;;;;;;5043966;28;19932;-62
2023/04/26 11:23:46;;;;;;;;;;;;;;;;;;5042069;28;19975;-62
2023/04/26 11:26:13;;;;;;;;;;;;;;;;;;5041504;28;19929;-62
2023/04/26 11:28:40;;;;;;;;;;;;;;;;;;5043926;28;19929;-62
2023/04/26 11:31:07;;;;;;;;;;;;;;;;;;5046065;28;19936;-62
2023/04/26 11:33:34;;;;;;;;;;;;;;;;;;5050736;28;19971;-62
2023/04/26 11:36:01;;;;;;;;;;;;;;;;;;5042594;28;19951;-62
2023/04/26 11:38:27;;;;;;;;;;;;;;;;;;5043385;28;19925;-62
2023/04/26 11:40:54;;;;;;;;;;;;;;;;;;5032541;28;19971;-62
2023/04/26 11:43:21;;;;;;;;;;;;;;;;;;5032168;28;20004;-62
2023/04/26 11:45:48;;;;;;;;;;;;;;;;;;5032260;28;20440;-63
2023/04/26 11:48:15;;;;;;;;;;;;;;;;;;5031827;28;19926;-62
2023/04/26 11:50:42;;;;;;;;;;;;;;;;;;5036354;28;19925;-62
2023/04/26 11:53:09;;;;;;;;;;;;;;;;;;5032309;28;19976;-62
2023/04/26 11:55:36;;;;;;;;;;;;;;;;;;5032258;28;19983;-62
2023/04/26 11:58:03;;;;;;;;;;;;;;;;;;5031926;28;19929;-61
2023/04/26 12:00:29;;;;;;;;;;;;;;;;;;5037480;28;19979;-62
2023/04/26 12:02:57;;;;;;;;;;;;;;;;;;5052147;28;20002;-63
2023/04/26 12:05:23;;;;;;;;;;;;;;;;;;5041181;28;20307;-63
2023/04/26 12:07:51;;;;;;;;;;;;;;;;;;5041206;28;20458;-61
2023/04/26 12:10:18;;;;;;;;;;;;;;;;;;5043721;28;19931;-62
2023/04/26 12:12:45;;;;;;;;;;;;;;;;;;5042291;28;19929;-62
2023/04/26 12:15:12;;;;;;;;;;;;;;;;;;5041108;28;19925;-62
2023/04/26 12:17:39;;;;;;;;;;;;;;;;;;5043629;28;19925;-62
2023/04/26 12:20:06;;;;;;;;;;;;;;;;;;5045225;28;19925;-62
2023/04/26 12:22:33;;;;;;;;;;;;;;;;;;5043308;28;19979;-61
2023/04/26 12:24:59;;;;;;;;;;;;;;;;;;5041390;28;19925;-62
2023/04/26 12:27:26;;;;;;;;;;;;;;;;;;5040304;28;19971;-62
2023/04/26 12:29:53;;;;;;;;;;;;;;;;;;5042815;28;19995;-62
2023/04/26 12:32:20;;;;;;;;;;;;;;;;;;5047224;28;20514;-61
2023/04/26 12:34:47;;;;;;;;;;;;;;;;;;5051245;28;19964;-64
2023/04/26 12:37:14;;;;;;;;;;;;;;;;;;5052628;28;19970;-66
2023/04/26 12:39:42;;;;;;;;;;;;;;;;;;5050988;28;19932;-64
2023/04/26 12:42:09;;;;;;;;;;;;;;;;;;5053118;28;19975;-62
2023/04/26 12:44:36;;;;;;;;;;;;;;;;;;5047206;28;19932;-62
2023/04/26 12:47:03;;;;;;;;;;;;;;;;;;5042664;28;20019;-66
2023/04/26 12:49:30;;;;;;;;;;;;;;;;;;5044922;28;19926;-64
2023/04/26 12:51:56;;;;;;;;;;;;;;;;;;5043699;28;19925;-63
2023/04/26 12:54:23;;;;;;;;;;;;;;;;;;5050167;28;20452;-64
2023/04/26 12:56:50;;;;;;;;;;;;;;;;;;5051424;28;19929;-62
2023/04/26 12:59:17;;;;;;;;;;;;;;;;;;5055644;28;19982;-62
2023/04/26 13:01:44;;;;;;;;;;;;;;;;;;5048389;28;19978;-62
2023/04/26 13:04:11;;;;;;;;;;;;;;;;;;5044516;28;20010;-61
2023/04/26 13:06:38;;;;;;;;;;;;;;;;;;5052442;28;19971;-61
2023/04/26 13:09:06;;;;;;;;;;;;;;;;;;5060793;28;19978;-61
2023/04/26 13:11:33;;;;;;;;;;;;;;;;;;5043791;28;19925;-62
2023/04/26 13:14:00;;;;;;;;;;;;;;;;;;5056101;28;19969;-62
2023/04/26 13:16:27;;;;;;;;;;;;;;;;;;5047214;28;19924;-61
2023/04/26 13:18:54;;;;;;;;;;;;;;;;;;5042514;28;19929;-60
2023/04/26 13:21:21;;;;;;;;;;;;;;;;;;5043061;28;20011;-59
2023/04/26 13:23:48;;;;;;;;;;;;;;;;;;5044855;28;20343;-60
2023/04/26 13:26:16;;;;;;;;;;;;;;;;;;5042041;28;20449;-65
2023/04/26 13:28:43;;;;;;;;;;;;;;;;;;5055732;28;20004;-63
2023/04/26 13:31:11;;;;;;;;;;;;;;;;;;5044813;28;19925;-60
2023/04/26 13:33:38;;;;;;;;;;;;;;;;;;5054289;28;19925;-59
2023/04/26 13:36:06;;;;;;;;;;;;;;;;;;5045501;28;19925;-59
2023/04/26 13:38:32;;;;;;;;;;;;;;;;;;5052542;28;20003;-57
2023/04/26 13:40:59;;;;;;;;;;;;;;;;;;5054046;28;20273;-58
2023/04/26 13:43:26;;;;;;;;;;;;;;;;;;5044416;28;19935;-60
2023/04/26 13:45:53;;;;;;;;;;;;;;;;;;5041832;28;19929;-60
2023/04/26 13:48:20;;;;;;;;;;;;;;;;;;5048608;28;20141;-65
2023/04/26 13:50:47;;;;;;;;;;;;;;;;;;5049005;28;20346;-58
2023/04/26 13:53:13;;;;;;;;;;;;;;;;;;5045070;28;20346;-58
2023/04/26 13:55:40;;;;;;;;;;;;;;;;;;5050776;28;19933;-57
2023/04/26 13:58:08;;;;;;;;;;;;;;;;;;5049692;28;19931;-58
2023/04/26 14:00:34;;;;;;;;;;;;;;;;;;5053219;28;20005;-58
2023/04/26 14:03:02;;;;;;;;;;;;;;;;;;5054731;28;19925;-58
2023/04/26 14:05:29;;;;;;;;;;;;;;;;;;5048048;28;19933;-59
2023/04/26 14:07:56;;;;;;;;;;;;;;;;;;5051508;28;19981;-58
2023/04/26 14:10:23;;;;;;;;;;;;;;;;;;5050850;28;19924;-59
2023/04/26 14:12:50;;;;;;;;;;;;;;;;;;5059366;28;20342;-60
2023/04/26 14:15:17;;;;;;;;;;;;;;;;;;5049716;28;19948;-58
2023/04/26 14:17:45;;;;;;;;;;;;;;;;;;5055124;28;19998;-59
2023/04/26 14:20:12;;;;;;;;;;;;;;;;;;5046339;28;19936;-60
2023/04/26 14:22:39;;;;;;;;;;;;;;;;;;5055560;28;19925;-58
2023/04/26 14:25:06;;;;;;;;;;;;;;;;;;5049776;28;20442;-61
2023/04/26 14:27:33;;;;;;;;;;;;;;;;;;5050474;28;19929;-60
2023/04/26 14:29:59;;;;;;;;;;;;;;;;;;5053252;28;19950;-59
2023/04/26 14:32:26;;;;;;;;;;;;;;;;;;5054908;28;19925;-60
2023/04/26 14:34:53;;;;;;;;;;;;;;;;;;5048083;28;20379;-58
2023/04/26 14:37:21;;;;;;;;;;;;;;;;;;5050533;28;19925;-59
2023/04/26 14:39:48;;;;;;;;;;;;;;;;;;5051373;28;19977;-60
2023/04/26 14:42:15;;;;;;;;;;;;;;;;;;5051433;28;19975;-60
2023/04/26 14:44:42;;;;;;;;;;;;;;;;;;5051339;28;19925;-59
2023/04/26 14:47:09;;;;;;;;;;;;;;;;;;5053432;28;19971;-60
2023/04/26 14:49:36;;;;;;;;;;;;;;;;;;5048363;28;19928;-59
2023/04/26 14:52:03;;;;;;;;;;;;;;;;;;5045915;28;19924;-60
2023/04/26 14:54:30;;;;;;;;;;;;;;;;;;5050025;28;20329;-59
2023/04/26 14:56:57;;;;;;;;;;;;;;;;;;5053275;28;19960;-59
2023/04/26 14:59:24;;;;;;;;;;;;;;;;;;5049445;28;19983;-60
2023/04/26 15:01:52;;;;;;;;;;;;;;;;;;5054632;28;19960;-59
2023/04/26 15:04:18;;;;;;;;;;;;;;;;;;5050912;28;20298;-56
2023/04/26 15:06:45;;;;;;;;;;;;;;;;;;5053824;28;20371;-58
2023/04/26 15:09:12;;;;;;;;;;;;;;;;;;5048593;28;19995;-61
2023/04/26 15:11:39;;;;;;;;;;;;;;;;;;5052610;28;19979;-60
2023/04/26 15:14:06;;;;;;;;;;;;;;;;;;5048216;28;19924;-60
2023/04/26 15:16:33;;;;;;;;;;;;;;;;;;5049678;28;19925;-60
2023/04/26 15:19:00;;;;;;;;;;;;;;;;;;5048880;28;19932;-59
2023/04/26 15:21:27;;;;;;;;;;;;;;;;;;5050657;28;19929;-59
2023/04/26 15:23:55;;;;;;;;;;;;;;;;;;5056180;28;20378;-59
2023/04/26 15:26:21;;;;;;;;;;;;;;;;;;5048155;28;19952;-60
2023/04/26 15:28:48;;;;;;;;;;;;;;;;;;5056285;28;19924;-59
2023/04/26 15:31:15;;;;;;;;;;;;;;;;;;5051466;28;20339;-60
2023/04/26 15:33:42;;;;;;;;;;;;;;;;;;5055714;28;20357;-60
2023/04/26 15:36:09;;;;;;;;;;;;;;;;;;5047774;28;20433;-60
2023/04/26 15:38:36;;;;;;;;;;;;;;;;;;5049698;28;19929;-61
2023/04/26 15:41:03;;;;;;;;;;;;;;;;;;5049782;28;20399;-60
2023/04/26 15:43:29;;;;;;;;;;;;;;;;;;5050181;28;19960;-60
2023/04/26 15:45:56;;;;;;;;;;;;;;;;;;5050024;28;19986;-60
2023/04/26 15:48:24;;;;;;;;;;;;;;;;;;5047116;28;19971;-61
2023/04/26 15:50:52;;;;;;;;;;;;;;;;;;5052480;28;19925;-60
2023/04/26 15:53:20;;;;;;;;;;;;;;;;;;5049889;28;20402;-60
2023/04/26 15:55:47;;;;;;;;;;;;;;;;;;5046854;28;20364;-62
2023/04/26 15:58:14;;;;;;;;;;;;;;;;;;5055730;28;19925;-62
2023/04/26 16:00:41;;;;;;;;;;;;;;;;;;5045631;28;19979;-61
2023/04/26 16:03:08;;;;;;;;;;;;;;;;;;5053213;28;19970;-62
2023/04/26 16:05:35;;;;;;;;;;;;;;;;;;5041127;28;19971;-62
2023/04/26 16:08:02;;;;;;;;;;;;;;;;;;5040893;28;19979;-60
2023/04/26 16:10:29;;;;;;;;;;;;;;;;;;5042459;28;19951;-59
2023/04/26 16:12:57;;;;;;;;;;;;;;;;;;5042478;28;19979;-59
2023/04/26 16:15:25;;;;;;;;;;;;;;;;;;5039329;28;19929;-59
2023/04/26 16:17:52;;;;;;;;;;;;;;;;;;5044710;28;20268;-61
2023/04/26 16:20:18;;;;;;;;;;;;;;;;;;5046327;28;19994;-61
2023/04/26 16:22:45;;;;;;;;;;;;;;;;;;5047220;28;19931;-62
2023/04/26 16:25:12;;;;;;;;;;;;;;;;;;5047752;28;19929;-62
2023/04/26 16:27:39;;;;;;;;;;;;;;;;;;5046328;28;19924;-63
2023/04/26 16:30:06;;;;;;;;;;;;;;;;;;5046294;28;19929;-62
2023/04/26 16:32:33;;;;;;;;;;;;;;;;;;5058844;28;19929;-61
2023/04/26 16:34:59;;;;;;;;;;;;;;;;;;5048562;28;19924;-61
2023/04/26 16:37:26;;;;;;;;;;;;;;;;;;5052693;28;19929;-61
2023/04/26 16:39:54;;;;;;;;;;;;;;;;;;5046923;28;19925;-63
2023/04/26 16:42:21;;;;;;;;;;;;;;;;;;5045716;28;19932;-62